CNL8 weather

Wyevale (Boker Field) Airport
Wyevale, Ontario, Canada

Public forecast

Using degrees Celsius for public forecast. Weather courtesy of forecast.io.

METAR (pilot weather report)

Closest report is CFB Borden, 23.1 nm (42.7 km) S. Retrieved 2019/05/21 02:00 UTC (11 minutes ago):

CYBN 210200Z AUTO 31006KT 280V340 9SM OVC032 08/05 A3001 RMK SLP168

TAF (pilot weather forecast)

Forecast is more than 12 hours old.

Closest forecast is CFB Borden, 23.1 nm (42.7 km) S. Retrieved 2019/05/17 18:33 UTC (3 days ago):

TAF TAF CYBN 171730Z 1718/1806 33010G20KT P6SM OVC020 TEMPO 1718/1720 33020KT SCT020 BKN030 FM172000 33015G25KT P6SM SCT030 TEMPO 1720/1724 33020KT BKN030 BECMG 1800/1802 32010KT RMK FCST BASED ON AUTO OBS. NXT FCST BY 180000Z